Time;durP1;ratioP1;P1;durP2;ratioP2;P2;SDS_P1;SDS_P2;PMS_P1;PMS_P2;Temp;Humidity;BMP_temperature;BMP_pressure;BME280_temperature;BME280_humidity;BME280_pressure;Samples;Min_cycle;Max_cycle;Signal;HPM_P1;HPM_P2
2023/07/15 00:00:53;;;;;;;8.17;3.90;;;19.90;99.90;;;;;;5095075;28;20098;-75
2023/07/15 00:03:19;;;;;;;8.13;4.75;;;19.90;99.90;;;;;;5095198;28;20539;-75
2023/07/15 00:05:46;;;;;;;8.00;3.77;;;19.90;99.90;;;;;;5094991;28;20127;-75
2023/07/15 00:08:12;;;;;;;8.10;4.23;;;19.90;99.90;;;;;;5094376;28;20051;-77
2023/07/15 00:10:41;;;;;;;6.87;3.80;;;19.90;99.90;;;;;;5076901;28;20040;-78
2023/07/15 00:13:17;;;;;;;7.97;3.70;;;19.90;99.90;;;;;;5094046;28;20044;-75
2023/07/15 00:15:47;;;;;;;6.70;4.10;;;19.90;99.90;;;;;;5094804;28;20086;-75
2023/07/15 00:18:14;;;;;;;5.37;3.30;;;19.90;99.90;;;;;;5094993;28;20055;-75
2023/07/15 00:20:47;;;;;;;7.27;3.77;;;19.90;99.90;;;;;;5094685;28;20044;-74
2023/07/15 00:23:18;;;;;;;10.53;3.57;;;19.90;99.90;;;;;;5094905;28;20051;-75
2023/07/15 00:25:44;;;;;;;6.63;3.57;;;19.90;99.90;;;;;;5094575;28;20044;-76
2023/07/15 00:28:10;;;;;;;7.50;4.00;;;19.90;99.90;;;;;;5094663;28;20043;-77
2023/07/15 00:30:36;;;;;;;7.13;3.70;;;19.90;99.90;;;;;;5094486;28;20134;-78
2023/07/15 00:33:03;;;;;;;6.90;3.80;;;20.00;99.90;;;;;;5094737;28;20056;-76
2023/07/15 00:35:30;;;;;;;5.00;3.17;;;20.00;99.90;;;;;;5094257;28;20123;-76
2023/07/15 00:37:57;;;;;;;9.50;3.57;;;20.00;99.90;;;;;;5094196;28;20063;-76
2023/07/15 00:40:24;;;;;;;8.53;3.30;;;20.00;99.90;;;;;;5094413;28;20051;-75
2023/07/15 00:42:52;;;;;;;6.33;3.07;;;20.00;99.90;;;;;;5094175;28;20197;-74
2023/07/15 00:45:17;;;;;;;9.77;3.57;;;20.10;99.90;;;;;;5093264;28;20395;-74
2023/07/15 00:48:01;;;;;;;8.03;3.23;;;20.10;99.90;;;;;;5093698;28;20052;-76
2023/07/15 00:50:27;;;;;;;8.13;3.23;;;20.10;99.90;;;;;;5094356;28;20047;-75
2023/07/15 00:52:53;;;;;;;5.00;3.33;;;20.20;99.90;;;;;;5094052;28;20480;-76
2023/07/15 00:55:19;;;;;;;7.10;3.70;;;20.10;99.90;;;;;;5093137;28;20044;-75
2023/07/15 00:57:45;;;;;;;10.13;3.63;;;20.20;99.90;;;;;;5092739;28;20164;-74
2023/07/15 01:00:12;;;;;;;5.83;3.17;;;20.20;99.90;;;;;;5094197;28;20044;-76
2023/07/15 01:02:38;;;;;;;8.70;3.53;;;20.20;99.90;;;;;;5094206;28;20048;-76
2023/07/15 01:05:06;;;;;;;6.67;3.40;;;20.20;99.90;;;;;;5092473;28;20079;-75
2023/07/15 01:07:32;;;;;;;7.50;3.63;;;20.20;99.90;;;;;;5093108;28;20420;-78
2023/07/15 01:09:58;;;;;;;5.83;3.23;;;20.20;99.90;;;;;;5092626;28;20103;-75
2023/07/15 01:12:23;;;;;;;7.87;3.67;;;20.20;99.90;;;;;;5094020;28;20107;-75
2023/07/15 01:14:49;;;;;;;8.63;3.70;;;20.20;99.90;;;;;;5075793;28;20080;-75
2023/07/15 01:17:15;;;;;;;6.70;3.23;;;20.20;99.90;;;;;;5093894;28;20127;-75
2023/07/15 01:19:40;;;;;;;7.73;3.70;;;20.20;99.90;;;;;;5092649;28;20234;-75
2023/07/15 01:22:07;;;;;;;7.43;3.60;;;20.20;99.90;;;;;;5093702;28;20050;-75
2023/07/15 01:24:34;;;;;;;9.40;3.27;;;20.20;99.90;;;;;;5093797;28;20044;-74
2023/07/15 01:27:05;;;;;;;7.73;3.47;;;20.20;99.90;;;;;;5093298;28;20052;-75
2023/07/15 01:29:31;;;;;;;7.10;3.50;;;20.20;99.90;;;;;;5093580;28;20047;-75
2023/07/15 01:31:57;;;;;;;7.13;3.23;;;20.20;99.90;;;;;;5092387;28;20051;-75
2023/07/15 01:34:22;;;;;;;7.80;3.10;;;20.30;99.90;;;;;;5093759;28;20043;-75
2023/07/15 01:36:48;;;;;;;6.10;3.27;;;20.30;99.90;;;;;;5092698;28;20048;-75
2023/07/15 01:39:15;;;;;;;6.27;2.80;;;20.30;99.90;;;;;;5092470;28;20052;-74
2023/07/15 01:41:42;;;;;;;7.33;2.90;;;20.30;99.90;;;;;;5093156;28;20510;-75
2023/07/15 01:44:07;;;;;;;7.37;3.17;;;20.30;99.90;;;;;;5092144;28;20388;-75
2023/07/15 01:46:39;;;;;;;6.47;3.13;;;20.30;99.90;;;;;;5092148;28;20044;-75
2023/07/15 01:49:05;;;;;;;5.30;3.07;;;20.30;99.90;;;;;;5093133;28;20063;-75
2023/07/15 01:51:31;;;;;;;7.40;3.10;;;20.30;99.90;;;;;;5093201;28;20043;-75
2023/07/15 01:53:58;;;;;;;7.20;3.00;;;20.30;99.90;;;;;;5092903;28;20048;-75
2023/07/15 01:56:24;;;;;;;5.50;2.87;;;20.30;99.90;;;;;;5093175;28;20484;-75
2023/07/15 01:58:50;;;;;;;6.47;3.00;;;20.20;99.90;;;;;;5092879;28;20051;-75
2023/07/15 02:01:16;;;;;;;5.20;2.50;;;20.30;99.90;;;;;;5092405;28;20067;-75
2023/07/15 02:03:41;;;;;;;6.00;3.40;;;20.30;99.90;;;;;;5093085;28;20130;-75
2023/07/15 02:06:07;;;;;;;8.10;2.80;;;20.40;99.90;;;;;;5092557;28;20044;-75
2023/07/15 02:08:33;;;;;;;7.20;3.07;;;20.50;99.90;;;;;;5091733;28;20533;-75
2023/07/15 02:10:58;;;;;;;9.37;2.47;;;20.50;99.90;;;;;;5092752;28;20122;-75
2023/07/15 02:13:25;;;;;;;5.13;2.53;;;20.50;99.90;;;;;;5093187;28;20044;-75
2023/07/15 02:15:51;;;;;;;4.40;2.40;;;20.50;99.90;;;;;;5091563;28;20094;-75
2023/07/15 02:18:17;;;;;;;7.30;2.80;;;20.60;99.90;;;;;;5092917;28;20044;-75
2023/07/15 02:20:44;;;;;;;6.97;2.80;;;20.60;99.90;;;;;;5092822;28;20512;-75
2023/07/15 02:23:11;;;;;;;5.63;2.57;;;20.60;99.90;;;;;;5092626;28;20056;-75
2023/07/15 02:25:37;;;;;;;8.13;2.80;;;20.60;99.90;;;;;;5075004;28;20044;-74
2023/07/15 02:28:02;;;;;;;5.43;2.43;;;20.60;99.90;;;;;;5074644;28;20048;-74
2023/07/15 02:30:28;;;;;;;6.63;3.00;;;20.60;99.90;;;;;;5092661;28;20101;-74
2023/07/15 02:32:54;;;;;;;9.27;2.70;;;20.60;99.90;;;;;;5091138;28;20059;-75
2023/07/15 02:35:21;;;;;;;8.17;2.70;;;20.70;99.90;;;;;;5092709;28;20499;-74
2023/07/15 02:37:49;;;;;;;5.03;3.07;;;20.60;99.90;;;;;;5074545;28;20066;-74
2023/07/15 02:40:17;;;;;;;7.20;2.77;;;20.60;99.90;;;;;;5092279;28;20047;-74
2023/07/15 02:42:42;;;;;;;6.50;2.87;;;20.60;99.90;;;;;;5092715;28;20040;-74
2023/07/15 02:45:11;;;;;;;6.80;3.30;;;20.70;99.90;;;;;;5092285;28;20059;-75
2023/07/15 02:47:39;;;;;;;5.87;2.80;;;20.70;99.90;;;;;;5092564;28;20471;-74
2023/07/15 02:50:07;;;;;;;7.20;2.70;;;20.70;99.90;;;;;;5091178;28;20058;-75
2023/07/15 02:52:34;;;;;;;6.30;2.80;;;20.70;99.90;;;;;;5092419;28;20055;-74
2023/07/15 02:55:01;;;;;;;7.07;2.93;;;20.70;99.90;;;;;;5092208;28;20044;-74
2023/07/15 02:57:27;;;;;;;5.27;2.77;;;20.70;99.90;;;;;;5092184;28;20500;-74
2023/07/15 02:59:56;;;;;;;5.17;2.57;;;20.70;99.90;;;;;;5091277;28;20044;-74
2023/07/15 03:02:23;;;;;;;5.17;2.43;;;20.70;99.90;;;;;;5091224;28;20109;-74
2023/07/15 03:04:50;;;;;;;6.30;2.37;;;20.60;99.90;;;;;;5092111;28;20518;-74
2023/07/15 03:07:16;;;;;;;8.33;3.23;;;20.60;99.90;;;;;;5092182;28;20067;-74
2023/07/15 03:09:43;;;;;;;5.23;2.80;;;20.60;99.90;;;;;;5092358;28;20097;-74
2023/07/15 03:12:09;;;;;;;7.10;2.93;;;20.50;99.90;;;;;;5092210;28;20352;-75
2023/07/15 03:14:35;;;;;;;5.37;2.60;;;20.50;99.90;;;;;;5092359;28;20108;-75
2023/07/15 03:17:01;;;;;;;5.50;2.77;;;20.50;99.90;;;;;;5091135;28;20476;-75
2023/07/15 03:19:30;;;;;;;7.93;3.33;;;20.40;99.90;;;;;;5094256;28;20047;-74
2023/07/15 03:21:59;;;;;;;5.97;3.30;;;20.40;99.90;;;;;;5095012;28;20066;-76
2023/07/15 03:24:29;;;;;;;6.20;2.80;;;20.30;99.90;;;;;;5096049;28;20040;-74
2023/07/15 03:26:54;;;;;;;6.87;2.90;;;20.30;99.90;;;;;;5096040;28;20047;-74
2023/07/15 03:29:23;;;;;;;6.37;3.00;;;20.20;99.90;;;;;;5095668;28;20040;-74
2023/07/15 03:31:49;;;;;;;6.60;2.90;;;20.20;99.90;;;;;;5094897;28;20048;-74
2023/07/15 03:34:15;;;;;;;5.30;2.80;;;20.10;99.90;;;;;;5095641;28;20114;-74
2023/07/15 03:36:40;;;;;;;8.17;3.57;;;20.10;99.90;;;;;;5096075;28;20044;-74
2023/07/15 03:39:06;;;;;;;7.57;2.80;;;20.10;99.90;;;;;;5095567;28;20066;-75
2023/07/15 03:41:33;;;;;;;6.30;2.90;;;20.00;99.90;;;;;;5095676;28;20048;-74
2023/07/15 03:43:59;;;;;;;5.27;3.13;;;20.00;99.90;;;;;;5095287;28;20385;-77
2023/07/15 03:46:24;;;;;;;6.20;2.80;;;19.90;99.90;;;;;;5077721;28;20043;-74
2023/07/15 03:48:50;;;;;;;18.73;3.53;;;19.90;99.90;;;;;;5095660;28;20044;-75
2023/07/15 03:51:16;;;;;;;6.03;2.87;;;19.90;99.90;;;;;;5095219;28;20044;-75
2023/07/15 03:53:41;;;;;;;6.03;2.90;;;19.90;99.90;;;;;;5094731;28;20047;-74
2023/07/15 03:56:07;;;;;;;5.23;2.70;;;19.90;99.90;;;;;;5095305;28;20114;-74
2023/07/15 03:58:33;;;;;;;5.70;2.77;;;19.80;99.90;;;;;;5095682;28;20468;-74
2023/07/15 04:00:58;;;;;;;6.27;2.73;;;19.80;99.90;;;;;;5095481;28;20036;-74
2023/07/15 04:03:24;;;;;;;7.30;3.30;;;19.80;99.90;;;;;;5095043;28;20067;-74
2023/07/15 04:05:50;;;;;;;7.17;3.07;;;19.70;99.90;;;;;;5095398;28;20052;-74
2023/07/15 04:08:16;;;;;;;6.97;2.93;;;19.80;99.90;;;;;;5094998;28;20074;-75
2023/07/15 04:10:44;;;;;;;5.27;2.97;;;19.70;99.90;;;;;;5095337;28;20413;-75
2023/07/15 04:13:09;;;;;;;6.90;3.00;;;19.70;99.90;;;;;;5094818;28;20056;-75
2023/07/15 04:15:35;;;;;;;7.57;3.10;;;19.70;99.90;;;;;;5095356;28;20051;-75
2023/07/15 04:18:01;;;;;;;6.17;2.90;;;19.70;99.90;;;;;;5093982;28;20044;-75
2023/07/15 04:20:26;;;;;;;5.37;3.00;;;19.80;99.90;;;;;;5094734;28;20094;-75
2023/07/15 04:22:52;;;;;;;6.97;3.40;;;19.80;99.90;;;;;;5077301;28;20050;-75
2023/07/15 04:25:18;;;;;;;7.53;3.17;;;19.80;99.90;;;;;;5094890;28;20040;-76
2023/07/15 04:27:44;;;;;;;6.53;3.23;;;19.80;99.90;;;;;;5095146;28;20048;-75
2023/07/15 04:30:10;;;;;;;7.97;3.50;;;19.80;99.90;;;;;;5094268;28;20084;-76
2023/07/15 04:32:36;;;;;;;6.90;3.43;;;19.90;99.90;;;;;;5094799;28;20462;-75
2023/07/15 04:35:02;;;;;;;8.80;3.17;;;19.90;99.90;;;;;;5094614;28;20048;-75
2023/07/15 04:37:29;;;;;;;5.87;3.00;;;19.90;99.90;;;;;;5092861;28;20142;-75
2023/07/15 04:39:55;;;;;;;6.27;3.40;;;19.90;99.90;;;;;;5094722;28;20040;-75
2023/07/15 04:42:21;;;;;;;6.37;3.10;;;19.90;99.90;;;;;;5094549;28;20055;-76
2023/07/15 04:44:46;;;;;;;8.80;3.30;;;19.90;99.90;;;;;;5094700;28;20052;-75
2023/07/15 04:47:12;;;;;;;5.33;3.10;;;19.90;99.90;;;;;;5093263;28;20039;-76
2023/07/15 04:49:38;;;;;;;7.40;3.27;;;20.00;99.90;;;;;;5094279;28;20052;-76
2023/07/15 04:52:04;;;;;;;8.83;3.30;;;20.00;99.90;;;;;;5093173;28;20040;-75
2023/07/15 04:54:30;;;;;;;8.80;3.20;;;20.00;99.90;;;;;;5094069;28;20048;-76
2023/07/15 04:56:56;;;;;;;6.97;3.40;;;20.10;99.90;;;;;;5094343;28;20484;-75
2023/07/15 04:59:22;;;;;;;9.50;3.27;;;20.20;99.90;;;;;;5094110;28;20118;-75
2023/07/15 05:01:48;;;;;;;6.70;2.90;;;20.20;99.90;;;;;;5094361;28;20051;-75
2023/07/15 05:04:14;;;;;;;6.40;3.80;;;20.30;99.90;;;;;;5093879;28;20052;-76
2023/07/15 05:06:40;;;;;;;6.13;3.20;;;20.40;99.90;;;;;;5093986;28;20112;-75
2023/07/15 05:09:06;;;;;;;8.47;3.90;;;20.50;99.90;;;;;;5092819;28;20191;-75
2023/07/15 05:11:31;;;;;;;7.07;3.63;;;20.60;99.90;;;;;;5092510;28;20052;-75
2023/07/15 05:13:57;;;;;;;5.80;2.83;;;20.60;99.90;;;;;;5092921;28;20391;-75
2023/07/15 05:16:23;;;;;;;8.07;3.43;;;20.80;99.90;;;;;;5093669;28;20135;-75
2023/07/15 05:18:48;;;;;;;5.87;3.20;;;20.80;99.90;;;;;;5093902;28;20076;-74
2023/07/15 05:21:16;;;;;;;5.93;3.17;;;20.90;99.90;;;;;;5093229;28;20048;-75
2023/07/15 05:23:41;;;;;;;7.13;3.43;;;21.00;99.90;;;;;;5093608;28;20048;-75
2023/07/15 05:26:07;;;;;;;5.93;3.10;;;21.20;99.90;;;;;;5092498;28;20044;-75
2023/07/15 05:28:33;;;;;;;8.67;3.60;;;21.30;99.90;;;;;;5092382;28;20054;-76
2023/07/15 05:31:03;;;;;;;6.40;3.43;;;21.40;99.90;;;;;;5092363;28;20063;-75
2023/07/15 05:33:29;;;;;;;7.67;3.37;;;21.40;99.90;;;;;;5093314;28;20086;-74
2023/07/15 05:35:56;;;;;;;6.03;3.13;;;21.60;99.90;;;;;;5093679;28;20113;-75
2023/07/15 05:38:26;;;;;;;6.20;3.90;;;21.70;99.90;;;;;;5092894;28;20060;-75
2023/07/15 05:40:54;;;;;;;6.40;3.30;;;21.80;99.90;;;;;;5093271;28;20121;-74
2023/07/15 05:43:19;;;;;;;5.23;2.63;;;21.90;99.90;;;;;;5092777;28;20063;-74
2023/07/15 05:45:48;;;;;;;6.63;2.80;;;22.00;99.90;;;;;;5093447;28;20052;-74
2023/07/15 05:48:14;;;;;;;6.67;3.33;;;22.20;99.90;;;;;;5093233;28;20044;-77
2023/07/15 05:50:40;;;;;;;6.53;3.27;;;22.40;99.90;;;;;;5093274;28;20050;-75
2023/07/15 05:53:06;;;;;;;6.60;3.30;;;22.50;99.90;;;;;;5093346;28;20403;-75
2023/07/15 05:55:33;;;;;;;6.90;2.80;;;22.50;99.90;;;;;;5093058;28;20059;-75
2023/07/15 05:58:01;;;;;;;7.47;4.17;;;22.80;99.90;;;;;;5092169;28;20052;-75
2023/07/15 06:00:30;;;;;;;6.47;3.13;;;23.10;99.90;;;;;;5093007;28;20044;-75
2023/07/15 06:02:56;;;;;;;5.87;3.20;;;23.40;99.90;;;;;;5093144;28;20121;-75
2023/07/15 06:05:21;;;;;;;6.03;3.40;;;24.00;99.90;;;;;;5092881;28;20119;-75
2023/07/15 06:07:48;;;;;;;10.50;3.50;;;24.90;99.90;;;;;;5093260;28;20108;-75
2023/07/15 06:10:14;;;;;;;7.00;2.90;;;25.80;99.90;;;;;;5092994;28;20048;-75
2023/07/15 06:12:41;;;;;;;8.20;2.73;;;26.80;99.90;;;;;;5092367;28;20499;-75
2023/07/15 06:15:07;;;;;;;8.27;3.00;;;27.80;99.90;;;;;;5093071;28;20071;-76
2023/07/15 06:17:33;;;;;;;6.43;2.80;;;28.60;99.90;;;;;;5092704;28;20051;-76
2023/07/15 06:19:59;;;;;;;6.00;2.90;;;28.30;96.40;;;;;;5092927;28;20488;-77
2023/07/15 06:22:24;;;;;;;5.63;2.60;;;28.40;96.90;;;;;;5092618;28;20055;-73
2023/07/15 06:24:50;;;;;;;6.63;3.30;;;28.20;95.90;;;;;;5092907;28;20047;-77
2023/07/15 06:27:16;;;;;;;5.97;2.87;;;28.00;95.60;;;;;;5091903;28;20365;-77
2023/07/15 06:29:42;;;;;;;5.80;3.13;;;27.70;96.50;;;;;;5074625;28;20040;-77
2023/07/15 06:32:08;;;;;;;5.23;2.47;;;27.40;96.50;;;;;;5092871;28;20051;-77
2023/07/15 06:34:33;;;;;;;4.80;2.80;;;27.60;96.30;;;;;;5091547;28;20048;-77
2023/07/15 06:36:59;;;;;;;4.43;2.37;;;27.80;95.40;;;;;;5092525;28;20048;-71
2023/07/15 06:39:25;;;;;;;5.33;2.57;;;27.90;94.10;;;;;;5092550;28;20083;-75
2023/07/15 06:41:51;;;;;;;4.30;2.80;;;27.80;93.30;;;;;;5074825;28;20055;-75
2023/07/15 06:44:17;;;;;;;6.07;2.93;;;27.50;93.90;;;;;;5092726;28;20058;-76
2023/07/15 06:46:43;;;;;;;5.47;3.17;;;27.00;94.10;;;;;;5090811;28;20044;-76
2023/07/15 06:49:08;;;;;;;6.40;2.80;;;27.40;95.70;;;;;;5092508;28;20044;-76
2023/07/15 06:51:34;;;;;;;7.17;2.63;;;27.30;94.40;;;;;;5074263;28;20052;-76
2023/07/15 06:54:01;;;;;;;5.17;2.60;;;26.90;94.50;;;;;;5094309;28;20387;-76
2023/07/15 06:56:27;;;;;;;7.03;2.90;;;26.50;96.30;;;;;;5096375;28;20507;-75
2023/07/15 06:58:53;;;;;;;6.80;2.90;;;26.20;98.30;;;;;;5096933;28;20094;-76
2023/07/15 07:01:19;;;;;;;5.43;2.87;;;25.90;99.20;;;;;;5078709;28;20083;-75
2023/07/15 07:03:45;;;;;;;5.27;2.67;;;25.90;99.90;;;;;;5096288;28;20550;-76
2023/07/15 07:06:10;;;;;;;8.17;3.10;;;26.00;99.90;;;;;;5096623;28;20059;-75
2023/07/15 07:08:36;;;;;;;6.47;2.70;;;26.00;99.90;;;;;;5095122;28;20051;-76
2023/07/15 07:11:02;;;;;;;4.57;2.40;;;26.00;99.90;;;;;;5096318;28;20044;-76
2023/07/15 07:13:28;;;;;;;5.17;2.53;;;26.00;99.90;;;;;;5077805;28;20055;-75
2023/07/15 07:15:58;;;;;;;6.03;2.73;;;25.80;99.90;;;;;;5096308;28;20048;-75
2023/07/15 07:18:24;;;;;;;6.13;2.73;;;25.60;99.90;;;;;;5095211;28;20048;-75
2023/07/15 07:20:56;;;;;;;7.63;2.90;;;26.00;99.90;;;;;;5096241;28;20489;-75
2023/07/15 07:23:22;;;;;;;6.67;2.40;;;26.30;99.90;;;;;;5095881;28;20044;-75
2023/07/15 07:25:49;;;;;;;6.77;2.73;;;26.90;98.80;;;;;;5095834;28;20178;-76
2023/07/15 07:28:14;;;;;;;5.83;2.87;;;27.30;96.20;;;;;;5096095;28;20047;-75
2023/07/15 07:30:41;;;;;;;4.40;2.27;;;27.80;96.10;;;;;;5095670;28;20051;-75
2023/07/15 07:33:07;;;;;;;5.13;2.10;;;28.20;94.30;;;;;;5095902;28;20043;-75
2023/07/15 07:35:32;;;;;;;8.13;2.50;;;28.40;92.60;;;;;;5095612;28;20040;-76
2023/07/15 07:37:58;;;;;;;4.90;1.90;;;28.90;91.80;;;;;;5095953;28;20117;-76
2023/07/15 07:40:24;;;;;;;6.38;2.33;;;29.70;87.20;;;;;;5095868;28;20127;-76
2023/07/15 07:42:50;;;;;;;4.28;1.95;;;30.40;77.70;;;;;;5094413;28;20052;-76
2023/07/15 07:45:16;;;;;;;5.20;1.80;;;30.80;73.10;;;;;;5094875;28;20501;-75
2023/07/15 07:47:42;;;;;;;3.67;2.03;;;30.80;70.00;;;;;;5077535;28;20063;-76
2023/07/15 07:50:08;;;;;;;3.55;1.85;;;30.80;68.60;;;;;;5095723;28;20036;-75
2023/07/15 07:52:34;;;;;;;4.00;1.80;;;31.20;66.90;;;;;;5094305;28;20044;-75
2023/07/15 07:55:01;;;;;;;4.50;2.33;;;31.20;64.00;;;;;;5095591;28;20108;-74
2023/07/15 07:57:27;;;;;;;2.63;1.60;;;30.80;62.00;;;;;;5095320;28;20060;-76
2023/07/15 07:59:52;;;;;;;5.43;1.90;;;30.40;61.80;;;;;;5075613;28;20051;-76
2023/07/15 08:02:18;;;;;;;3.92;1.85;;;30.20;64.40;;;;;;5094755;28;20089;-76
2023/07/15 08:04:44;;;;;;;2.88;1.58;;;29.80;64.40;;;;;;5094591;28;20044;-77
2023/07/15 08:07:10;;;;;;;4.53;2.22;;;29.20;65.50;;;;;;5094286;28;20104;-77
2023/07/15 08:09:35;;;;;;;7.85;2.17;;;28.60;67.90;;;;;;5094934;28;20051;-78
2023/07/15 08:12:01;;;;;;;3.70;1.58;;;28.10;73.00;;;;;;5095208;28;20048;-78
2023/07/15 08:14:27;;;;;;;4.15;1.50;;;27.70;77.80;;;;;;5093856;28;20055;-78
2023/07/15 08:16:52;;;;;;;4.25;1.70;;;27.50;82.70;;;;;;5094832;28;20202;-75
2023/07/15 08:19:18;;;;;;;4.88;1.60;;;27.30;84.60;;;;;;5094309;28;20044;-76
2023/07/15 08:21:44;;;;;;;5.05;1.73;;;27.20;87.00;;;;;;5093736;28;20087;-74
2023/07/15 08:24:09;;;;;;;4.40;1.60;;;26.90;87.70;;;;;;5095123;28;20047;-75
2023/07/15 08:26:35;;;;;;;3.28;1.67;;;26.60;90.10;;;;;;5094713;28;20089;-76
2023/07/15 08:29:02;;;;;;;3.85;1.98;;;26.40;91.30;;;;;;5094898;28;20048;-76
2023/07/15 08:31:28;;;;;;;2.77;1.40;;;26.10;92.40;;;;;;5094893;28;20047;-79
2023/07/15 08:33:54;;;;;;;3.60;1.40;;;26.00;93.40;;;;;;5094693;28;20413;-76
2023/07/15 08:36:20;;;;;;;4.80;1.63;;;26.20;94.70;;;;;;5093744;28;20048;-78
2023/07/15 08:38:46;;;;;;;3.73;1.77;;;26.30;94.20;;;;;;5094695;28;20060;-79
2023/07/15 08:41:14;;;;;;;2.50;1.30;;;27.00;94.20;;;;;;5094877;28;20051;-75
2023/07/15 08:43:43;;;;;;;3.73;1.40;;;27.80;91.40;;;;;;5094533;28;20084;-77
2023/07/15 08:46:30;;;;;;;5.57;1.50;;;28.20;86.20;;;;;;5094782;28;20044;-77
2023/07/15 08:48:58;;;;;;;5.95;1.80;;;28.20;79.60;;;;;;5094121;28;20498;-77
2023/07/15 08:51:30;;;;;;;3.63;1.40;;;28.10;77.20;;;;;;5094596;28;20140;-79
2023/07/15 08:53:56;;;;;;;3.83;1.75;;;27.90;73.80;;;;;;5093321;28;20054;-75
2023/07/15 08:56:24;;;;;;;4.05;1.73;;;27.70;74.80;;;;;;5094360;28;20047;-74
2023/07/15 08:58:50;;;;;;;3.78;1.52;;;27.40;77.20;;;;;;5094156;28;20399;-72
2023/07/15 09:01:17;;;;;;;5.03;1.70;;;27.10;78.80;;;;;;5093976;28;20415;-70
2023/07/15 09:03:42;;;;;;;4.10;2.10;;;27.00;83.70;;;;;;5094080;28;20055;-73
2023/07/15 09:06:09;;;;;;;3.28;1.40;;;26.80;87.00;;;;;;5094501;28;20459;-71
2023/07/15 09:08:35;;;;;;;4.47;1.60;;;26.60;90.20;;;;;;5094136;28;20060;-71
2023/07/15 09:11:02;;;;;;;4.07;1.90;;;26.60;92.10;;;;;;5093670;28;20036;-70
2023/07/15 09:13:32;;;;;;;3.90;1.75;;;26.60;92.80;;;;;;5093044;28;20054;-71
2023/07/15 09:15:58;;;;;;;4.60;1.88;;;26.60;92.90;;;;;;5093050;28;20117;-70
2023/07/15 09:18:24;;;;;;;4.22;1.83;;;26.50;92.50;;;;;;5093702;28;20052;-69
2023/07/15 09:21:05;;;;;;;4.63;1.98;;;26.40;92.70;;;;;;5092738;28;20365;-71
2023/07/15 09:23:31;;;;;;;3.20;1.60;;;26.40;92.30;;;;;;5093092;28;20047;-69
2023/07/15 09:26:00;;;;;;;3.80;1.50;;;26.50;92.20;;;;;;5093540;28;20059;-71
2023/07/15 09:28:26;;;;;;;3.22;1.50;;;26.70;91.60;;;;;;5093819;28;20512;-69
2023/07/15 09:30:52;;;;;;;4.35;1.90;;;26.80;91.70;;;;;;5093104;28;20044;-69
2023/07/15 09:33:31;;;;;;;3.17;1.50;;;27.00;91.70;;;;;;5093776;28;20051;-71
2023/07/15 09:35:57;;;;;;;2.70;1.55;;;27.00;92.10;;;;;;5093423;28;20052;-73
2023/07/15 09:38:23;;;;;;;5.10;1.50;;;27.10;91.70;;;;;;5093360;28;20357;-69
2023/07/15 09:40:49;;;;;;;7.13;1.67;;;27.00;90.60;;;;;;5093252;28;20048;-70
2023/07/15 09:43:15;;;;;;;3.60;1.60;;;26.90;89.70;;;;;;5075759;28;20052;-70
2023/07/15 09:45:41;;;;;;;5.27;1.47;;;26.80;90.20;;;;;;5093347;28;20050;-82
2023/07/15 09:48:08;;;;;;;3.27;1.40;;;26.80;90.10;;;;;;5092796;28;20134;-73
2023/07/15 09:50:36;;;;;;;4.77;2.00;;;26.80;90.20;;;;;;5093339;28;20100;-70
2023/07/15 09:53:03;;;;;;;4.23;2.00;;;26.90;90.00;;;;;;5093153;28;20192;-70
2023/07/15 09:55:31;;;;;;;2.63;1.37;;;26.80;90.10;;;;;;5093532;28;20048;-71
2023/07/15 09:58:11;;;;;;;2.90;1.30;;;26.70;90.40;;;;;;5093014;28;20164;-72
2023/07/15 10:00:46;;;;;;;3.67;1.60;;;26.70;90.40;;;;;;5093333;28;20048;-71
2023/07/15 10:03:22;;;;;;;2.93;1.60;;;26.70;90.40;;;;;;5093134;28;20396;-71
2023/07/15 10:05:48;;;;;;;3.53;1.63;;;26.80;90.00;;;;;;5092980;28;20126;-71
2023/07/15 10:08:14;;;;;;;2.70;1.47;;;26.80;87.50;;;;;;5092029;28;20047;-71
2023/07/15 10:10:40;;;;;;;4.97;1.60;;;26.80;88.30;;;;;;5093023;28;20040;-69
2023/07/15 10:13:07;;;;;;;4.20;1.80;;;26.80;87.30;;;;;;5092859;28;20059;-70
2023/07/15 10:15:33;;;;;;;4.43;1.77;;;26.80;87.10;;;;;;5091856;28;20126;-71
2023/07/15 10:18:12;;;;;;;4.10;1.70;;;26.80;89.50;;;;;;5092734;28;20182;-76
2023/07/15 10:21:00;;;;;;;3.57;1.93;;;26.90;90.10;;;;;;5092997;28;20577;-72
2023/07/15 10:23:32;;;;;;;6.63;1.63;;;27.00;90.00;;;;;;5092602;28;20408;-73
2023/07/15 10:26:08;;;;;;;3.60;1.73;;;27.00;89.30;;;;;;5092635;28;20450;-71
2023/07/15 10:28:38;;;;;;;6.33;1.87;;;27.00;88.40;;;;;;5074978;28;20123;-71
2023/07/15 10:31:13;;;;;;;4.60;1.70;;;26.90;90.20;;;;;;5091474;28;20040;-72
2023/07/15 10:33:56;;;;;;;3.83;1.80;;;27.00;90.90;;;;;;5092917;28;20069;-75
2023/07/15 10:36:35;;;;;;;5.50;1.63;;;27.00;91.60;;;;;;5092159;28;20048;-73
2023/07/15 10:39:15;;;;;;;3.63;1.80;;;27.00;91.90;;;;;;5091276;28;20166;-72
2023/07/15 10:41:46;;;;;;;3.37;1.80;;;27.00;92.80;;;;;;5093016;28;20392;-75
2023/07/15 10:44:23;;;;;;;4.73;1.90;;;26.90;92.10;;;;;;5091795;28;20055;-77
2023/07/15 10:46:58;;;;;;;4.33;1.77;;;26.90;93.60;;;;;;5092213;28;20040;-82
2023/07/15 10:49:24;;;;;;;5.33;1.80;;;26.90;94.00;;;;;;5090886;28;20415;-79
2023/07/15 10:51:52;;;;;;;5.43;1.83;;;26.70;94.40;;;;;;5092293;28;20040;-82
2023/07/15 10:54:29;;;;;;;4.30;1.90;;;26.60;95.30;;;;;;5089644;28;20110;-77
2023/07/15 10:56:55;;;;;;;3.37;1.60;;;26.40;96.40;;;;;;5092297;28;20122;-78
2023/07/15 10:59:32;;;;;;;4.83;1.67;;;26.30;97.50;;;;;;5092682;28;20043;-78
2023/07/15 11:01:59;;;;;;;5.03;1.80;;;26.30;98.00;;;;;;5092542;28;20044;-79
2023/07/15 11:04:25;;;;;;;4.23;1.53;;;26.20;99.10;;;;;;5091420;28;20055;-77
2023/07/15 11:06:51;;;;;;;4.43;1.70;;;26.20;99.20;;;;;;5092673;28;20040;-80
2023/07/15 11:09:17;;;;;;;4.90;1.80;;;26.20;99.60;;;;;;5092662;28;20489;-78
2023/07/15 11:11:43;;;;;;;3.40;1.70;;;26.10;99.70;;;;;;5092632;28;20127;-80
2023/07/15 11:14:26;;;;;;;5.17;1.93;;;26.10;99.90;;;;;;5092265;28;20040;-72
2023/07/15 11:17:15;;;;;;;3.10;1.60;;;26.10;99.90;;;;;;5092626;28;20048;-79
2023/07/15 11:19:40;;;;;;;3.93;1.70;;;26.10;99.90;;;;;;5093008;28;20185;-82
2023/07/15 11:22:09;;;;;;;5.57;1.87;;;26.20;99.90;;;;;;5092235;28;20109;-72
2023/07/15 11:24:35;;;;;;;4.47;1.80;;;26.20;99.70;;;;;;5092354;28;20044;-73
2023/07/15 11:27:02;;;;;;;4.17;1.80;;;26.20;99.50;;;;;;5092066;28;20432;-73
2023/07/15 11:29:28;;;;;;;3.83;1.60;;;26.20;99.40;;;;;;5092677;28;20054;-80
2023/07/15 11:31:56;;;;;;;4.97;1.70;;;26.10;99.60;;;;;;5091067;28;20470;-82
2023/07/15 11:34:26;;;;;;;4.27;1.70;;;26.10;99.80;;;;;;5089770;28;20054;-77
2023/07/15 11:36:57;;;;;;;4.73;1.60;;;26.10;99.90;;;;;;5091690;28;20059;-76
2023/07/15 11:39:24;;;;;;;3.40;1.63;;;26.10;99.70;;;;;;5092403;28;20048;-76
2023/07/15 11:41:50;;;;;;;6.00;1.57;;;26.10;99.60;;;;;;5096068;28;20065;-76
2023/07/15 11:44:20;;;;;;;4.20;2.17;;;26.00;99.60;;;;;;5094412;28;20055;-76
2023/07/15 11:46:46;;;;;;;2.70;1.37;;;25.90;99.10;;;;;;5095872;28;20044;-77
2023/07/15 11:49:18;;;;;;;6.53;1.80;;;25.90;99.80;;;;;;5095506;28;20044;-76
2023/07/15 11:51:44;;;;;;;3.50;1.80;;;25.90;99.90;;;;;;5095869;28;20349;-77
2023/07/15 11:54:12;;;;;;;4.13;2.20;;;26.00;99.90;;;;;;5095323;28;20051;-76
2023/07/15 11:56:43;;;;;;;4.57;2.10;;;26.10;99.90;;;;;;5095588;28;20047;-77
2023/07/15 11:59:11;;;;;;;5.00;1.70;;;26.20;99.90;;;;;;5095224;28;20040;-77
2023/07/15 12:01:40;;;;;;;5.13;1.60;;;26.30;98.90;;;;;;5095827;28;20507;-75
2023/07/15 12:04:14;;;;;;;5.53;1.90;;;26.20;98.60;;;;;;5095194;28;20044;-79
2023/07/15 12:06:55;;;;;;;3.60;1.63;;;26.30;98.80;;;;;;5095418;28;20044;-76
2023/07/15 12:09:22;;;;;;;3.07;1.67;;;26.30;98.90;;;;;;5095188;28;20347;-76
2023/07/15 12:11:48;;;;;;;4.97;1.90;;;26.40;98.60;;;;;;5095086;28;20391;-77
2023/07/15 12:14:15;;;;;;;3.73;1.77;;;26.50;98.30;;;;;;5094987;28;20044;-74
2023/07/15 12:16:42;;;;;;;5.03;2.00;;;26.50;98.00;;;;;;5095265;28;20048;-77
2023/07/15 12:19:13;;;;;;;5.97;1.80;;;26.50;98.20;;;;;;5093392;28;20418;-75
2023/07/15 12:21:39;;;;;;;4.80;1.70;;;26.50;98.80;;;;;;5095060;28;20589;-76
2023/07/15 12:24:05;;;;;;;2.80;1.60;;;26.50;98.90;;;;;;5093787;28;20055;-76
2023/07/15 12:26:31;;;;;;;3.40;1.60;;;26.40;99.40;;;;;;5095065;28;20040;-77
2023/07/15 12:28:57;;;;;;;3.93;1.80;;;26.40;99.70;;;;;;5094140;28;20360;-76
2023/07/15 12:31:23;;;;;;;4.20;1.70;;;26.30;99.30;;;;;;5093334;28;20047;-76
2023/07/15 12:33:49;;;;;;;4.87;1.80;;;26.10;99.50;;;;;;5094933;28;20044;-77
2023/07/15 12:36:16;;;;;;;2.87;1.43;;;26.10;99.90;;;;;;5093651;28;20132;-77
2023/07/15 12:38:43;;;;;;;4.17;2.07;;;26.20;99.90;;;;;;5094370;28;20109;-77
2023/07/15 12:41:09;;;;;;;3.20;1.70;;;26.10;99.30;;;;;;5094554;28;20356;-78
2023/07/15 12:43:35;;;;;;;2.77;1.60;;;26.10;99.40;;;;;;5094698;28;20044;-78
2023/07/15 12:46:02;;;;;;;3.60;2.10;;;25.90;99.60;;;;;;5094458;28;20047;-79